»·PEaware :: N17MA KCMA-KSNA

N17MA :: KCMA-KSNA

FLIGHT INFORMATION

Flight Status: Arrived
Operator: Privately registered:
United States
More flights under this callsign
Pilot: Diego M. (28112)
Aircraft: CESSNA 172 SKYHAWK
(C172)
More flights by this aircraft type
Origin: KCMA Camarillo
United States
Destination: KSNA John Wayne-Orange Co
United States
More flights between these airports :: More routes between these airports
Route: +KCMA LAX KSNA
File this flight plan on PilotEdge
Remarks: CAT 10 COSTAL ROUTE
Altitude:
(Current/Filed)
5,500ft
Speed:
(Current/Filed)
120kts
Departed: 30-Apr-20 03:29 PM
Arrived: 30-Apr-20 04:13 PM
Distance/Time
Traveled:
69nm/0:43
Distance/Time
To Go:
Arrived

Flight Plot

Page will automatically refresh every two minutes.

Flight plan parsing failed; only flown route is shown


Map Options




Map Legend


Flown Route
Filed Route
Departure Airport
Arrival Airport
Navaid (VOR, NDB)
Fix

Horizontal Profiles

Position Reports

Time Latitude Longitude Heading Altitude Ground
Speed
30-Apr-20 15:20 34.210212 -119.076473 268 81ft 0kts
30-Apr-20 15:21 34.210212 -119.076473 268 81ft 0kts
30-Apr-20 15:22 34.210212 -119.076473 268 81ft 0kts
30-Apr-20 15:23 34.210212 -119.076473 268 81ft 0kts
30-Apr-20 15:24 34.210880 -119.078753 271 81ft 13kts
30-Apr-20 15:25 34.211395 -119.084619 357 81ft 14kts
30-Apr-20 15:26 34.212916 -119.084625 1 81ft 0kts
30-Apr-20 15:27 34.213367 -119.084622 356 81ft 9kts
30-Apr-20 15:28 34.213903 -119.097828 266 250ft 76kts
30-Apr-20 15:29 34.207943 -119.117410 193 752ft 69kts
30-Apr-20 15:30 34.200687 -119.097708 85 1162ft 85kts
30-Apr-20 15:31 34.202422 -119.068926 97 1659ft 84kts
30-Apr-20 15:32 34.201386 -119.040043 103 2378ft 87kts
30-Apr-20 15:33 34.197239 -119.008946 103 3188ft 100kts
30-Apr-20 15:34 34.192153 -118.973443 103 3961ft 109kts
30-Apr-20 15:35 34.186847 -118.937210 103 4760ft 108kts
30-Apr-20 15:36 34.181592 -118.901629 103 5504ft 111kts
30-Apr-20 15:37 34.175529 -118.862142 103 5511ft 121kts
30-Apr-20 15:38 34.169352 -118.821891 103 5512ft 122kts
30-Apr-20 15:39 34.163142 -118.781216 103 5445ft 126kts
30-Apr-20 15:40 34.156547 -118.739443 102 5452ft 128kts
30-Apr-20 15:41 34.149510 -118.696658 102 5455ft 130kts
30-Apr-20 15:42 34.142262 -118.653639 102 5458ft 130kts
30-Apr-20 15:43 34.134550 -118.610654 102 5464ft 131kts
30-Apr-20 15:44 34.126634 -118.567481 102 5470ft 131kts
30-Apr-20 15:45 34.118560 -118.524124 114 5465ft 130kts
30-Apr-20 15:46 34.088336 -118.505233 163 5459ft 121kts
30-Apr-20 15:47 34.056928 -118.491555 167 5518ft 117kts
30-Apr-20 15:48 34.025351 -118.479171 159 5524ft 121kts
30-Apr-20 15:49 33.994596 -118.461825 159 5527ft 121kts
30-Apr-20 15:50 33.963022 -118.446538 163 5531ft 122kts
30-Apr-20 15:51 33.931376 -118.431403 143 5536ft 126kts
30-Apr-20 15:52 33.905369 -118.402280 141 5543ft 127kts
30-Apr-20 15:53 33.878819 -118.374103 143 5551ft 128kts
30-Apr-20 15:54 33.851277 -118.347711 144 5526ft 129kts
30-Apr-20 15:55 33.823183 -118.320258 144 5520ft 129kts
30-Apr-20 15:56 33.795510 -118.292691 143 5515ft 128kts
30-Apr-20 15:57 33.768043 -118.265115 143 5511ft 128kts
30-Apr-20 15:58 33.740655 -118.237540 144 5507ft 127kts
30-Apr-20 15:59 33.713558 -118.210243 144 5505ft 126kts
30-Apr-20 16:00 33.696671 -118.176579 77 5496ft 132kts
30-Apr-20 16:01 33.711733 -118.136192 61 5484ft 131kts
30-Apr-20 16:02 33.720530 -118.095400 83 4846ft 119kts
30-Apr-20 16:03 33.724632 -118.056995 86 4141ft 113kts
30-Apr-20 16:04 33.728382 -118.019355 88 3440ft 112kts
30-Apr-20 16:05 33.727786 -117.982953 98 2940ft 93kts
30-Apr-20 16:06 33.725992 -117.949152 98 2834ft 95kts
30-Apr-20 16:07 33.724839 -117.919959 98 2326ft 82kts
30-Apr-20 16:08 33.723558 -117.892978 104 1750ft 81kts
30-Apr-20 16:09 33.715320 -117.868140 127 1224ft 78kts
30-Apr-20 16:10 33.699731 -117.855253 186 610ft 69kts
30-Apr-20 16:11 33.683334 -117.863994 205 126ft 56kts
30-Apr-20 16:12 33.677476 -117.867090 105 60ft 8kts
30-Apr-20 16:13 33.677310 -117.866582 118 60ft 0kts
30-Apr-20 16:15 33.676915 -117.865704 117 60ft 10kts
30-Apr-20 16:16 33.675743 -117.865419 206 60ft 9kts
30-Apr-20 16:17 33.672553 -117.867805 209 60ft 16kts
30-Apr-20 16:18 33.669536 -117.870461 220 60ft 16kts
30-Apr-20 16:19 33.667219 -117.872257 135 60ft 2kts
30-Apr-20 16:20 33.667226 -117.872089 59 60ft 0kts
30-Apr-20 16:21 33.667226 -117.872089 59 60ft 0kts
30-Apr-20 16:22 33.667226 -117.872089 59 60ft 0kts
30-Apr-20 16:23 33.667226 -117.872089 59 60ft 0kts
30-Apr-20 16:24 33.667226 -117.872089 59 60ft 0kts
30-Apr-20 16:25 33.667226 -117.872089 59 60ft 0kts
30-Apr-20 16:26 33.667226 -117.872089 59 60ft 0kts
30-Apr-20 16:27 33.667226 -117.872089 59 60ft 0kts

Navigation Log

Ident Type
Flight plan parsing failed, navigation log unavailable